sensor_id;sensor_type;location;lat;lon;timestamp;temperature;humidity
25092;DHT22;13082;52.374;4.946;2022-09-12T00:01:17;18.60;99.90
25092;DHT22;13082;52.374;4.946;2022-09-12T00:03:44;18.50;99.90
25092;DHT22;13082;52.374;4.946;2022-09-12T00:06:16;18.40;99.90
25092;DHT22;13082;52.374;4.946;2022-09-12T00:08:42;18.40;99.90
25092;DHT22;13082;52.374;4.946;2022-09-12T00:11:09;18.40;99.90
25092;DHT22;13082;52.374;4.946;2022-09-12T00:13:36;18.40;99.90
25092;DHT22;13082;52.374;4.946;2022-09-12T00:16:02;18.40;99.90
25092;DHT22;13082;52.374;4.946;2022-09-12T00:18:28;18.40;99.90
25092;DHT22;13082;52.374;4.946;2022-09-12T00:20:53;18.40;99.90
25092;DHT22;13082;52.374;4.946;2022-09-12T00:23:19;18.30;99.90
25092;DHT22;13082;52.374;4.946;2022-09-12T00:25:46;18.30;99.90
25092;DHT22;13082;52.374;4.946;2022-09-12T00:28:14;18.20;99.90
25092;DHT22;13082;52.374;4.946;2022-09-12T00:30:44;18.30;99.90
25092;DHT22;13082;52.374;4.946;2022-09-12T00:33:10;18.20;99.90
25092;DHT22;13082;52.374;4.946;2022-09-12T00:35:48;18.20;99.90
25092;DHT22;13082;52.374;4.946;2022-09-12T00:38:15;18.20;99.90
25092;DHT22;13082;52.374;4.946;2022-09-12T00:40:41;18.10;99.90
25092;DHT22;13082;52.374;4.946;2022-09-12T00:43:32;18.10;99.90
25092;DHT22;13082;52.374;4.946;2022-09-12T00:46:01;18.00;99.90
25092;DHT22;13082;52.374;4.946;2022-09-12T00:48:34;18.00;99.90
25092;DHT22;13082;52.374;4.946;2022-09-12T00:51:02;18.10;99.90
25092;DHT22;13082;52.374;4.946;2022-09-12T00:53:28;18.10;99.90
25092;DHT22;13082;52.374;4.946;2022-09-12T00:55:55;18.00;99.90
25092;DHT22;13082;52.374;4.946;2022-09-12T00:58:27;18.10;99.90
25092;DHT22;13082;52.374;4.946;2022-09-12T01:00:55;18.10;99.90
25092;DHT22;13082;52.374;4.946;2022-09-12T01:03:22;18.10;99.90
25092;DHT22;13082;52.374;4.946;2022-09-12T01:08:38;18.10;99.90
25092;DHT22;13082;52.374;4.946;2022-09-12T01:11:07;18.10;99.90
25092;DHT22;13082;52.374;4.946;2022-09-12T01:13:34;18.10;99.90
25092;DHT22;13082;52.374;4.946;2022-09-12T01:16:03;18.10;99.90
25092;DHT22;13082;52.374;4.946;2022-09-12T01:18:48;18.10;99.90
25092;DHT22;13082;52.374;4.946;2022-09-12T01:21:21;18.00;99.90
25092;DHT22;13082;52.374;4.946;2022-09-12T01:32:54;18.10;99.90
25092;DHT22;13082;52.374;4.946;2022-09-12T01:35:44;18.00;99.90
25092;DHT22;13082;52.374;4.946;2022-09-12T01:38:26;17.90;99.90
25092;DHT22;13082;52.374;4.946;2022-09-12T01:43:36;17.80;99.90
25092;DHT22;13082;52.374;4.946;2022-09-12T01:46:18;17.80;99.90
25092;DHT22;13082;52.374;4.946;2022-09-12T01:54:52;17.80;99.90
25092;DHT22;13082;52.374;4.946;2022-09-12T01:57:26;17.80;99.90
25092;DHT22;13082;52.374;4.946;2022-09-12T01:59:58;17.90;99.90
25092;DHT22;13082;52.374;4.946;2022-09-12T02:02:35;17.80;99.90
25092;DHT22;13082;52.374;4.946;2022-09-12T02:05:16;17.90;99.90
25092;DHT22;13082;52.374;4.946;2022-09-12T02:08:16;17.80;99.90
25092;DHT22;13082;52.374;4.946;2022-09-12T02:10:47;17.80;99.90
25092;DHT22;13082;52.374;4.946;2022-09-12T02:13:29;17.80;99.90
25092;DHT22;13082;52.374;4.946;2022-09-12T02:17:03;17.80;99.90
25092;DHT22;13082;52.374;4.946;2022-09-12T02:19:14;17.80;99.90
25092;DHT22;13082;52.374;4.946;2022-09-12T02:21:49;17.80;99.90
25092;DHT22;13082;52.374;4.946;2022-09-12T02:24:16;17.80;99.90
25092;DHT22;13082;52.374;4.946;2022-09-12T02:27:04;17.70;99.90
25092;DHT22;13082;52.374;4.946;2022-09-12T02:29:31;17.70;99.90
25092;DHT22;13082;52.374;4.946;2022-09-12T02:31:58;17.70;99.90
25092;DHT22;13082;52.374;4.946;2022-09-12T02:37:21;17.60;99.90
25092;DHT22;13082;52.374;4.946;2022-09-12T02:39:53;17.60;99.90
25092;DHT22;13082;52.374;4.946;2022-09-12T02:42:20;17.60;99.90
25092;DHT22;13082;52.374;4.946;2022-09-12T02:44:47;17.50;99.90
25092;DHT22;13082;52.374;4.946;2022-09-12T02:49:57;17.60;99.90
25092;DHT22;13082;52.374;4.946;2022-09-12T02:52:23;17.70;99.90
25092;DHT22;13082;52.374;4.946;2022-09-12T02:54:50;17.70;99.90
25092;DHT22;13082;52.374;4.946;2022-09-12T02:57:18;17.70;99.90
25092;DHT22;13082;52.374;4.946;2022-09-12T02:59:45;17.60;99.90
25092;DHT22;13082;52.374;4.946;2022-09-12T03:02:29;17.60;99.90
25092;DHT22;13082;52.374;4.946;2022-09-12T03:24:36;17.60;99.90
25092;DHT22;13082;52.374;4.946;2022-09-12T03:27:26;17.60;99.90
25092;DHT22;13082;52.374;4.946;2022-09-12T03:29:54;17.50;99.90
25092;DHT22;13082;52.374;4.946;2022-09-12T03:32:39;17.60;99.90
25092;DHT22;13082;52.374;4.946;2022-09-12T03:35:05;17.60;99.90
25092;DHT22;13082;52.374;4.946;2022-09-12T03:37:31;17.60;99.90
25092;DHT22;13082;52.374;4.946;2022-09-12T03:39:57;17.60;99.90
25092;DHT22;13082;52.374;4.946;2022-09-12T03:42:22;17.60;99.90
25092;DHT22;13082;52.374;4.946;2022-09-12T03:44:48;17.60;99.90
25092;DHT22;13082;52.374;4.946;2022-09-12T03:47:13;17.50;99.90
25092;DHT22;13082;52.374;4.946;2022-09-12T03:49:39;17.40;99.90
25092;DHT22;13082;52.374;4.946;2022-09-12T03:52:04;17.40;99.90
25092;DHT22;13082;52.374;4.946;2022-09-12T03:54:30;17.50;99.90
25092;DHT22;13082;52.374;4.946;2022-09-12T03:56:55;17.40;99.90
25092;DHT22;13082;52.374;4.946;2022-09-12T03:59:21;17.40;99.90
25092;DHT22;13082;52.374;4.946;2022-09-12T04:01:47;17.40;99.90
25092;DHT22;13082;52.374;4.946;2022-09-12T04:04:12;17.30;99.90
25092;DHT22;13082;52.374;4.946;2022-09-12T04:06:38;17.50;99.90
25092;DHT22;13082;52.374;4.946;2022-09-12T04:09:03;17.40;99.90
25092;DHT22;13082;52.374;4.946;2022-09-12T04:11:29;17.40;99.90
25092;DHT22;13082;52.374;4.946;2022-09-12T04:13:56;17.40;99.90
25092;DHT22;13082;52.374;4.946;2022-09-12T04:16:22;17.50;99.90
25092;DHT22;13082;52.374;4.946;2022-09-12T04:18:47;17.40;99.90
25092;DHT22;13082;52.374;4.946;2022-09-12T04:21:18;17.40;99.90
25092;DHT22;13082;52.374;4.946;2022-09-12T04:23:44;17.40;99.90
25092;DHT22;13082;52.374;4.946;2022-09-12T04:26:10;17.40;99.90
25092;DHT22;13082;52.374;4.946;2022-09-12T04:28:38;17.40;99.90
25092;DHT22;13082;52.374;4.946;2022-09-12T04:31:22;17.40;99.90
25092;DHT22;13082;52.374;4.946;2022-09-12T04:33:59;17.30;99.90
25092;DHT22;13082;52.374;4.946;2022-09-12T04:36:26;17.30;99.90
25092;DHT22;13082;52.374;4.946;2022-09-12T04:38:52;17.40;99.90
25092;DHT22;13082;52.374;4.946;2022-09-12T04:41:27;17.30;99.90
25092;DHT22;13082;52.374;4.946;2022-09-12T04:43:55;17.30;99.90
25092;DHT22;13082;52.374;4.946;2022-09-12T04:46:24;17.40;99.90
25092;DHT22;13082;52.374;4.946;2022-09-12T04:48:50;17.40;99.90
25092;DHT22;13082;52.374;4.946;2022-09-12T04:51:21;17.40;99.90
25092;DHT22;13082;52.374;4.946;2022-09-12T04:53:49;17.40;99.90
25092;DHT22;13082;52.374;4.946;2022-09-12T04:56:15;17.30;99.90
25092;DHT22;13082;52.374;4.946;2022-09-12T04:58:41;17.30;99.90
25092;DHT22;13082;52.374;4.946;2022-09-12T05:01:11;17.40;99.90
25092;DHT22;13082;52.374;4.946;2022-09-12T05:03:38;17.30;99.90
25092;DHT22;13082;52.374;4.946;2022-09-12T05:06:06;17.30;99.90
25092;DHT22;13082;52.374;4.946;2022-09-12T05:08:33;17.40;99.90
25092;DHT22;13082;52.374;4.946;2022-09-12T05:11:05;17.40;99.90
25092;DHT22;13082;52.374;4.946;2022-09-12T05:13:31;17.40;99.90
25092;DHT22;13082;52.374;4.946;2022-09-12T05:15:59;17.40;99.90
25092;DHT22;13082;52.374;4.946;2022-09-12T05:18:26;17.40;99.90
25092;DHT22;13082;52.374;4.946;2022-09-12T05:20:53;17.30;99.90
25092;DHT22;13082;52.374;4.946;2022-09-12T05:23:19;17.30;99.90
25092;DHT22;13082;52.374;4.946;2022-09-12T05:25:52;17.30;99.90
25092;DHT22;13082;52.374;4.946;2022-09-12T05:28:19;17.20;99.90
25092;DHT22;13082;52.374;4.946;2022-09-12T05:30:45;17.20;99.90
25092;DHT22;13082;52.374;4.946;2022-09-12T05:33:12;17.20;99.90
25092;DHT22;13082;52.374;4.946;2022-09-12T05:35:38;17.10;99.90
25092;DHT22;13082;52.374;4.946;2022-09-12T05:38:05;17.00;99.90
25092;DHT22;13082;52.374;4.946;2022-09-12T05:40:31;17.00;99.90
25092;DHT22;13082;52.374;4.946;2022-09-12T05:42:57;17.00;99.90
25092;DHT22;13082;52.374;4.946;2022-09-12T05:45:22;17.00;99.90
25092;DHT22;13082;52.374;4.946;2022-09-12T05:47:48;17.00;99.90
25092;DHT22;13082;52.374;4.946;2022-09-12T05:50:13;17.10;99.90
25092;DHT22;13082;52.374;4.946;2022-09-12T05:52:39;17.10;99.90
25092;DHT22;13082;52.374;4.946;2022-09-12T05:55:05;17.00;99.90
25092;DHT22;13082;52.374;4.946;2022-09-12T05:57:31;17.00;99.90
25092;DHT22;13082;52.374;4.946;2022-09-12T05:59:57;17.10;99.90
25092;DHT22;13082;52.374;4.946;2022-09-12T06:02:23;17.10;99.90
25092;DHT22;13082;52.374;4.946;2022-09-12T06:04:49;17.20;99.90
25092;DHT22;13082;52.374;4.946;2022-09-12T06:07:14;17.20;99.90
25092;DHT22;13082;52.374;4.946;2022-09-12T06:09:40;17.20;99.90
25092;DHT22;13082;52.374;4.946;2022-09-12T06:12:05;17.20;99.90
25092;DHT22;13082;52.374;4.946;2022-09-12T06:14:33;17.10;99.90
25092;DHT22;13082;52.374;4.946;2022-09-12T06:16:59;17.10;99.90
25092;DHT22;13082;52.374;4.946;2022-09-12T06:19:25;17.10;99.90
25092;DHT22;13082;52.374;4.946;2022-09-12T06:21:53;17.10;99.90
25092;DHT22;13082;52.374;4.946;2022-09-12T06:24:21;17.20;99.90
25092;DHT22;13082;52.374;4.946;2022-09-12T06:26:47;17.10;99.90
25092;DHT22;13082;52.374;4.946;2022-09-12T06:29:14;17.10;99.90
25092;DHT22;13082;52.374;4.946;2022-09-12T06:31:41;17.10;99.90
25092;DHT22;13082;52.374;4.946;2022-09-12T06:34:09;17.10;99.90
25092;DHT22;13082;52.374;4.946;2022-09-12T06:36:42;17.20;99.90
25092;DHT22;13082;52.374;4.946;2022-09-12T06:39:14;17.30;99.90
25092;DHT22;13082;52.374;4.946;2022-09-12T06:41:40;17.40;99.90
25092;DHT22;13082;52.374;4.946;2022-09-12T06:44:06;17.40;99.90
25092;DHT22;13082;52.374;4.946;2022-09-12T06:46:32;17.40;99.90
25092;DHT22;13082;52.374;4.946;2022-09-12T06:48:59;17.40;99.90
25092;DHT22;13082;52.374;4.946;2022-09-12T06:51:26;17.40;99.90
25092;DHT22;13082;52.374;4.946;2022-09-12T06:53:54;17.50;99.90
25092;DHT22;13082;52.374;4.946;2022-09-12T06:56:22;17.40;99.90
25092;DHT22;13082;52.374;4.946;2022-09-12T06:58:49;17.40;99.90
25092;DHT22;13082;52.374;4.946;2022-09-12T07:03:45;17.50;99.90
25092;DHT22;13082;52.374;4.946;2022-09-12T07:06:14;17.60;99.90
25092;DHT22;13082;52.374;4.946;2022-09-12T07:08:40;17.60;99.90
25092;DHT22;13082;52.374;4.946;2022-09-12T07:13:37;17.70;99.90
25092;DHT22;13082;52.374;4.946;2022-09-12T07:16:04;17.80;99.90
25092;DHT22;13082;52.374;4.946;2022-09-12T07:18:33;17.80;99.90
25092;DHT22;13082;52.374;4.946;2022-09-12T07:21:00;17.90;99.90
25092;DHT22;13082;52.374;4.946;2022-09-12T07:23:26;18.00;99.90
25092;DHT22;13082;52.374;4.946;2022-09-12T07:25:53;18.10;99.90
25092;DHT22;13082;52.374;4.946;2022-09-12T07:28:24;18.20;99.90
25092;DHT22;13082;52.374;4.946;2022-09-12T07:30:50;18.20;99.90
25092;DHT22;13082;52.374;4.946;2022-09-12T07:33:19;18.30;99.90
25092;DHT22;13082;52.374;4.946;2022-09-12T07:35:45;18.40;99.90
25092;DHT22;13082;52.374;4.946;2022-09-12T07:38:10;18.40;99.90
25092;DHT22;13082;52.374;4.946;2022-09-12T07:40:36;18.50;99.90
25092;DHT22;13082;52.374;4.946;2022-09-12T07:43:01;18.70;99.90
25092;DHT22;13082;52.374;4.946;2022-09-12T07:45:27;18.80;99.90
25092;DHT22;13082;52.374;4.946;2022-09-12T07:47:54;18.90;99.90
25092;DHT22;13082;52.374;4.946;2022-09-12T07:50:19;19.00;99.90
25092;DHT22;13082;52.374;4.946;2022-09-12T07:52:45;19.10;99.90
25092;DHT22;13082;52.374;4.946;2022-09-12T07:55:11;19.20;99.90
25092;DHT22;13082;52.374;4.946;2022-09-12T07:57:36;19.30;99.90
25092;DHT22;13082;52.374;4.946;2022-09-12T08:00:03;19.40;99.90
25092;DHT22;13082;52.374;4.946;2022-09-12T08:02:29;19.40;99.90
25092;DHT22;13082;52.374;4.946;2022-09-12T08:04:55;19.40;99.90
25092;DHT22;13082;52.374;4.946;2022-09-12T08:07:20;19.50;99.90
25092;DHT22;13082;52.374;4.946;2022-09-12T08:09:46;19.40;99.90
25092;DHT22;13082;52.374;4.946;2022-09-12T08:12:12;19.50;99.90
25092;DHT22;13082;52.374;4.946;2022-09-12T08:14:37;19.60;99.90
25092;DHT22;13082;52.374;4.946;2022-09-12T08:17:03;19.70;99.90
25092;DHT22;13082;52.374;4.946;2022-09-12T08:19:29;19.70;99.90
25092;DHT22;13082;52.374;4.946;2022-09-12T08:21:56;19.80;99.90
25092;DHT22;13082;52.374;4.946;2022-09-12T08:24:21;19.90;99.90
25092;DHT22;13082;52.374;4.946;2022-09-12T08:26:47;19.90;99.90
25092;DHT22;13082;52.374;4.946;2022-09-12T08:29:12;19.90;99.90
25092;DHT22;13082;52.374;4.946;2022-09-12T08:31:38;19.90;99.90
25092;DHT22;13082;52.374;4.946;2022-09-12T08:34:06;19.90;99.90
25092;DHT22;13082;52.374;4.946;2022-09-12T08:36:32;19.90;99.90
25092;DHT22;13082;52.374;4.946;2022-09-12T08:39:00;20.00;99.90
25092;DHT22;13082;52.374;4.946;2022-09-12T08:41:34;20.00;99.90
25092;DHT22;13082;52.374;4.946;2022-09-12T08:47:21;20.10;99.90
25092;DHT22;13082;52.374;4.946;2022-09-12T08:55:33;20.30;99.90
25092;DHT22;13082;52.374;4.946;2022-09-12T08:58:01;20.40;99.90
25092;DHT22;13082;52.374;4.946;2022-09-12T09:00:46;20.50;99.90
25092;DHT22;13082;52.374;4.946;2022-09-12T09:08:56;20.70;99.90
25092;DHT22;13082;52.374;4.946;2022-09-12T09:20:29;20.80;99.90
25092;DHT22;13082;52.374;4.946;2022-09-12T09:22:58;20.70;99.90
25092;DHT22;13082;52.374;4.946;2022-09-12T09:28:24;20.70;99.90
25092;DHT22;13082;52.374;4.946;2022-09-12T09:30:54;20.60;99.90
25092;DHT22;13082;52.374;4.946;2022-09-12T09:33:30;20.50;99.90
25092;DHT22;13082;52.374;4.946;2022-09-12T09:38:53;20.50;99.90
25092;DHT22;13082;52.374;4.946;2022-09-12T09:44:05;20.80;99.90
25092;DHT22;13082;52.374;4.946;2022-09-12T09:46:31;20.90;99.90
25092;DHT22;13082;52.374;4.946;2022-09-12T09:48:59;21.10;99.90
25092;DHT22;13082;52.374;4.946;2022-09-12T09:51:35;21.30;99.90
25092;DHT22;13082;52.374;4.946;2022-09-12T09:54:14;21.20;99.90
25092;DHT22;13082;52.374;4.946;2022-09-12T09:56:41;21.20;99.90
25092;DHT22;13082;52.374;4.946;2022-09-12T10:01:57;21.20;99.90
25092;DHT22;13082;52.374;4.946;2022-09-12T10:04:35;21.30;99.90
25092;DHT22;13082;52.374;4.946;2022-09-12T10:07:03;21.30;99.90
25092;DHT22;13082;52.374;4.946;2022-09-12T10:09:34;21.30;99.90
25092;DHT22;13082;52.374;4.946;2022-09-12T10:12:25;21.40;99.90
25092;DHT22;13082;52.374;4.946;2022-09-12T10:15:02;21.60;99.90
25092;DHT22;13082;52.374;4.946;2022-09-12T10:17:41;21.70;99.90
25092;DHT22;13082;52.374;4.946;2022-09-12T10:22:56;21.70;99.90
25092;DHT22;13082;52.374;4.946;2022-09-12T10:25:24;21.80;99.90
25092;DHT22;13082;52.374;4.946;2022-09-12T10:27:58;21.70;99.90
25092;DHT22;13082;52.374;4.946;2022-09-12T10:30:26;21.80;99.90
25092;DHT22;13082;52.374;4.946;2022-09-12T10:32:55;21.80;99.90
25092;DHT22;13082;52.374;4.946;2022-09-12T10:35:24;21.90;99.90
25092;DHT22;13082;52.374;4.946;2022-09-12T10:38:05;22.00;99.90
25092;DHT22;13082;52.374;4.946;2022-09-12T10:40:43;22.00;99.90
25092;DHT22;13082;52.374;4.946;2022-09-12T10:45:49;22.00;99.90
25092;DHT22;13082;52.374;4.946;2022-09-12T10:50:47;21.80;99.90
25092;DHT22;13082;52.374;4.946;2022-09-12T10:56:19;21.80;99.90
25092;DHT22;13082;52.374;4.946;2022-09-12T11:07:20;22.00;99.90
25092;DHT22;13082;52.374;4.946;2022-09-12T11:15:22;22.30;99.90
25092;DHT22;13082;52.374;4.946;2022-09-12T11:17:59;22.50;99.90
25092;DHT22;13082;52.374;4.946;2022-09-12T11:29:03;22.40;99.90
25092;DHT22;13082;52.374;4.946;2022-09-12T11:39:42;22.40;99.90
25092;DHT22;13082;52.374;4.946;2022-09-12T11:42:17;22.40;99.90
25092;DHT22;13082;52.374;4.946;2022-09-12T11:44:46;22.60;99.90
25092;DHT22;13082;52.374;4.946;2022-09-12T11:47:15;22.70;99.90
25092;DHT22;13082;52.374;4.946;2022-09-12T11:49:54;22.90;99.90
25092;DHT22;13082;52.374;4.946;2022-09-12T11:52:24;23.00;99.90
25092;DHT22;13082;52.374;4.946;2022-09-12T11:57:32;23.00;99.90
25092;DHT22;13082;52.374;4.946;2022-09-12T12:00:14;23.00;99.90
25092;DHT22;13082;52.374;4.946;2022-09-12T12:06:02;23.00;99.90
25092;DHT22;13082;52.374;4.946;2022-09-12T12:08:37;23.10;99.90
25092;DHT22;13082;52.374;4.946;2022-09-12T12:11:05;23.20;99.90
25092;DHT22;13082;52.374;4.946;2022-09-12T12:13:35;23.10;99.90
25092;DHT22;13082;52.374;4.946;2022-09-12T12:16:07;23.20;99.90
25092;DHT22;13082;52.374;4.946;2022-09-12T12:18:38;23.20;99.90
25092;DHT22;13082;52.374;4.946;2022-09-12T12:29:09;23.20;99.90
25092;DHT22;13082;52.374;4.946;2022-09-12T12:34:44;23.20;99.90
25092;DHT22;13082;52.374;4.946;2022-09-12T12:47:41;23.60;99.90
25092;DHT22;13082;52.374;4.946;2022-09-12T12:50:23;23.70;99.90
25092;DHT22;13082;52.374;4.946;2022-09-12T12:55:37;23.50;99.90
25092;DHT22;13082;52.374;4.946;2022-09-12T12:58:34;23.50;99.90
25092;DHT22;13082;52.374;4.946;2022-09-12T13:03:31;23.60;99.90
25092;DHT22;13082;52.374;4.946;2022-09-12T13:06:07;23.70;99.90
25092;DHT22;13082;52.374;4.946;2022-09-12T13:08:35;23.70;99.90
25092;DHT22;13082;52.374;4.946;2022-09-12T13:11:13;23.70;99.90
25092;DHT22;13082;52.374;4.946;2022-09-12T13:13:49;23.70;99.90
25092;DHT22;13082;52.374;4.946;2022-09-12T13:16:36;23.70;99.90
25092;DHT22;13082;52.374;4.946;2022-09-12T13:19:10;23.70;99.90
25092;DHT22;13082;52.374;4.946;2022-09-12T13:21:37;23.70;99.90
25092;DHT22;13082;52.374;4.946;2022-09-12T13:24:11;23.70;99.90
25092;DHT22;13082;52.374;4.946;2022-09-12T13:26:44;23.70;99.90
25092;DHT22;13082;52.374;4.946;2022-09-12T13:29:20;23.80;99.90
25092;DHT22;13082;52.374;4.946;2022-09-12T13:31:50;23.70;99.90
25092;DHT22;13082;52.374;4.946;2022-09-12T13:34:23;23.50;99.90
25092;DHT22;13082;52.374;4.946;2022-09-12T13:36:57;23.50;99.90
25092;DHT22;13082;52.374;4.946;2022-09-12T13:39:49;23.50;99.90
25092;DHT22;13082;52.374;4.946;2022-09-12T13:42:41;23.50;99.90
25092;DHT22;13082;52.374;4.946;2022-09-12T13:47:45;23.60;99.90
25092;DHT22;13082;52.374;4.946;2022-09-12T13:50:24;23.50;99.90
25092;DHT22;13082;52.374;4.946;2022-09-12T13:53:06;23.50;99.90
25092;DHT22;13082;52.374;4.946;2022-09-12T13:55:40;23.50;99.90
25092;DHT22;13082;52.374;4.946;2022-09-12T13:58:23;23.40;99.90
25092;DHT22;13082;52.374;4.946;2022-09-12T14:01:19;23.50;99.90
25092;DHT22;13082;52.374;4.946;2022-09-12T14:03:54;23.50;99.90
25092;DHT22;13082;52.374;4.946;2022-09-12T14:06:49;23.70;99.90
25092;DHT22;13082;52.374;4.946;2022-09-12T14:09:25;23.60;99.90
25092;DHT22;13082;52.374;4.946;2022-09-12T14:11:52;23.60;99.90
25092;DHT22;13082;52.374;4.946;2022-09-12T14:16:52;23.60;99.90
25092;DHT22;13082;52.374;4.946;2022-09-12T14:19:20;23.70;99.90
25092;DHT22;13082;52.374;4.946;2022-09-12T14:21:47;23.70;99.90
25092;DHT22;13082;52.374;4.946;2022-09-12T14:24:15;23.80;99.90
25092;DHT22;13082;52.374;4.946;2022-09-12T14:26:42;23.80;99.90
25092;DHT22;13082;52.374;4.946;2022-09-12T14:29:13;23.70;99.90
25092;DHT22;13082;52.374;4.946;2022-09-12T14:31:40;23.70;99.90
25092;DHT22;13082;52.374;4.946;2022-09-12T14:34:14;23.70;99.90
25092;DHT22;13082;52.374;4.946;2022-09-12T14:36:45;23.70;99.90
25092;DHT22;13082;52.374;4.946;2022-09-12T14:42:19;23.70;99.90
25092;DHT22;13082;52.374;4.946;2022-09-12T14:45:03;23.80;99.90
25092;DHT22;13082;52.374;4.946;2022-09-12T14:47:41;23.80;99.90
25092;DHT22;13082;52.374;4.946;2022-09-12T14:50:20;23.90;99.90
25092;DHT22;13082;52.374;4.946;2022-09-12T14:53:05;23.90;99.90
25092;DHT22;13082;52.374;4.946;2022-09-12T14:55:33;24.00;99.90
25092;DHT22;13082;52.374;4.946;2022-09-12T14:58:28;23.90;99.90
25092;DHT22;13082;52.374;4.946;2022-09-12T15:03:35;23.80;99.90
25092;DHT22;13082;52.374;4.946;2022-09-12T15:06:03;23.70;99.90
25092;DHT22;13082;52.374;4.946;2022-09-12T15:08:30;23.70;99.90
25092;DHT22;13082;52.374;4.946;2022-09-12T15:10:57;23.70;99.90
25092;DHT22;13082;52.374;4.946;2022-09-12T15:13:25;23.80;99.90
25092;DHT22;13082;52.374;4.946;2022-09-12T15:15:51;23.80;99.90
25092;DHT22;13082;52.374;4.946;2022-09-12T15:18:18;23.80;99.90
25092;DHT22;13082;52.374;4.946;2022-09-12T15:20:46;23.70;99.90
25092;DHT22;13082;52.374;4.946;2022-09-12T15:23:19;23.70;99.90
25092;DHT22;13082;52.374;4.946;2022-09-12T15:25:47;23.80;99.90
25092;DHT22;13082;52.374;4.946;2022-09-12T15:28:19;23.80;99.90
25092;DHT22;13082;52.374;4.946;2022-09-12T15:30:46;23.70;99.90
25092;DHT22;13082;52.374;4.946;2022-09-12T15:33:13;23.60;99.90
25092;DHT22;13082;52.374;4.946;2022-09-12T15:35:39;23.60;99.90
25092;DHT22;13082;52.374;4.946;2022-09-12T15:38:05;23.70;99.90
25092;DHT22;13082;52.374;4.946;2022-09-12T15:40:30;23.70;99.90
25092;DHT22;13082;52.374;4.946;2022-09-12T15:42:56;23.70;99.90
25092;DHT22;13082;52.374;4.946;2022-09-12T15:45:25;23.70;99.90
25092;DHT22;13082;52.374;4.946;2022-09-12T15:47:52;23.70;99.90
25092;DHT22;13082;52.374;4.946;2022-09-12T15:50:18;23.70;99.90
25092;DHT22;13082;52.374;4.946;2022-09-12T15:52:44;23.60;99.90
25092;DHT22;13082;52.374;4.946;2022-09-12T15:55:21;23.60;99.90
25092;DHT22;13082;52.374;4.946;2022-09-12T15:57:47;23.60;99.90
25092;DHT22;13082;52.374;4.946;2022-09-12T16:00:14;23.60;99.90
25092;DHT22;13082;52.374;4.946;2022-09-12T16:02:41;23.60;99.90
25092;DHT22;13082;52.374;4.946;2022-09-12T16:05:15;23.60;99.90
25092;DHT22;13082;52.374;4.946;2022-09-12T16:07:42;23.50;99.90
25092;DHT22;13082;52.374;4.946;2022-09-12T16:10:13;23.40;99.90
25092;DHT22;13082;52.374;4.946;2022-09-12T16:12:39;23.30;99.90
25092;DHT22;13082;52.374;4.946;2022-09-12T16:15:05;23.30;99.90
25092;DHT22;13082;52.374;4.946;2022-09-12T16:17:31;23.30;99.90
25092;DHT22;13082;52.374;4.946;2022-09-12T16:19:56;23.20;99.90
25092;DHT22;13082;52.374;4.946;2022-09-12T16:22:22;23.20;99.90
25092;DHT22;13082;52.374;4.946;2022-09-12T16:24:47;23.20;99.90
25092;DHT22;13082;52.374;4.946;2022-09-12T16:27:13;23.20;99.90
25092;DHT22;13082;52.374;4.946;2022-09-12T16:29:38;23.20;99.90
25092;DHT22;13082;52.374;4.946;2022-09-12T16:32:04;23.20;99.90
25092;DHT22;13082;52.374;4.946;2022-09-12T16:34:30;23.30;99.90
25092;DHT22;13082;52.374;4.946;2022-09-12T16:36:55;23.30;99.90
25092;DHT22;13082;52.374;4.946;2022-09-12T16:39:21;23.30;99.90
25092;DHT22;13082;52.374;4.946;2022-09-12T16:41:47;23.20;99.90
25092;DHT22;13082;52.374;4.946;2022-09-12T16:44:12;23.30;99.90
25092;DHT22;13082;52.374;4.946;2022-09-12T16:46:38;23.30;99.90
25092;DHT22;13082;52.374;4.946;2022-09-12T16:49:03;23.30;99.90
25092;DHT22;13082;52.374;4.946;2022-09-12T16:51:32;23.20;99.90
25092;DHT22;13082;52.374;4.946;2022-09-12T16:54:00;23.10;99.90
25092;DHT22;13082;52.374;4.946;2022-09-12T16:56:26;23.10;99.90
25092;DHT22;13082;52.374;4.946;2022-09-12T16:58:52;23.10;99.90
25092;DHT22;13082;52.374;4.946;2022-09-12T17:01:20;23.10;99.90
25092;DHT22;13082;52.374;4.946;2022-09-12T17:03:46;23.10;99.90
25092;DHT22;13082;52.374;4.946;2022-09-12T17:06:16;23.10;99.90
25092;DHT22;13082;52.374;4.946;2022-09-12T17:08:53;23.10;99.90
25092;DHT22;13082;52.374;4.946;2022-09-12T17:11:22;23.10;99.90
25092;DHT22;13082;52.374;4.946;2022-09-12T17:13:49;23.10;99.90
25092;DHT22;13082;52.374;4.946;2022-09-12T17:16:16;23.10;99.90
25092;DHT22;13082;52.374;4.946;2022-09-12T17:18:41;23.10;99.90
25092;DHT22;13082;52.374;4.946;2022-09-12T17:21:08;23.10;99.90
25092;DHT22;13082;52.374;4.946;2022-09-12T17:23:34;23.00;99.90
25092;DHT22;13082;52.374;4.946;2022-09-12T17:26:00;23.00;99.90
25092;DHT22;13082;52.374;4.946;2022-09-12T17:28:26;23.00;99.90
25092;DHT22;13082;52.374;4.946;2022-09-12T17:31:00;23.00;99.90
25092;DHT22;13082;52.374;4.946;2022-09-12T17:33:27;23.00;99.90
25092;DHT22;13082;52.374;4.946;2022-09-12T17:35:53;22.90;99.90
25092;DHT22;13082;52.374;4.946;2022-09-12T17:38:19;23.00;99.90
25092;DHT22;13082;52.374;4.946;2022-09-12T17:40:45;23.00;99.90
25092;DHT22;13082;52.374;4.946;2022-09-12T17:43:12;23.00;99.90
25092;DHT22;13082;52.374;4.946;2022-09-12T17:45:38;23.10;99.90
25092;DHT22;13082;52.374;4.946;2022-09-12T17:48:04;23.10;99.90
25092;DHT22;13082;52.374;4.946;2022-09-12T17:50:39;23.10;99.90
25092;DHT22;13082;52.374;4.946;2022-09-12T17:53:05;23.00;99.90
25092;DHT22;13082;52.374;4.946;2022-09-12T17:55:35;22.90;99.90
25092;DHT22;13082;52.374;4.946;2022-09-12T17:58:01;22.90;99.90
25092;DHT22;13082;52.374;4.946;2022-09-12T18:00:27;22.90;99.90
25092;DHT22;13082;52.374;4.946;2022-09-12T18:03:13;22.90;99.90
25092;DHT22;13082;52.374;4.946;2022-09-12T18:05:50;22.90;99.90
25092;DHT22;13082;52.374;4.946;2022-09-12T18:08:16;22.80;99.90
25092;DHT22;13082;52.374;4.946;2022-09-12T18:10:42;22.80;99.90
25092;DHT22;13082;52.374;4.946;2022-09-12T18:13:07;22.90;99.90
25092;DHT22;13082;52.374;4.946;2022-09-12T18:15:33;22.90;99.90
25092;DHT22;13082;52.374;4.946;2022-09-12T18:18:00;22.90;99.90
25092;DHT22;13082;52.374;4.946;2022-09-12T18:20:25;22.90;99.90
25092;DHT22;13082;52.374;4.946;2022-09-12T18:22:51;22.90;99.90
25092;DHT22;13082;52.374;4.946;2022-09-12T18:25:17;22.90;99.90
25092;DHT22;13082;52.374;4.946;2022-09-12T18:27:51;22.90;99.90
25092;DHT22;13082;52.374;4.946;2022-09-12T18:30:17;22.80;99.90
25092;DHT22;13082;52.374;4.946;2022-09-12T18:32:46;22.80;99.90
25092;DHT22;13082;52.374;4.946;2022-09-12T18:35:12;22.80;99.90
25092;DHT22;13082;52.374;4.946;2022-09-12T18:37:39;22.80;99.90